This is the latest recevied weather packets stored in our database for station/object EA5JMY-10. If no packets are shown the sender has not sent any weather packets the latest 10 day(s).
| Time | Temp. | Humidity | Pressure | Rain* | Wind** | Luminosity | Snow |
|---|---|---|---|---|---|---|---|
| 1777441829 | 18.89° C | 62% | 1012.8 hPa | - | - | - | - |
| 1777440929 | 18.33° C | 63% | 1012.7 hPa | - | - | - | - |
| 1777440029 | 17.78° C | 67% | 1012.8 hPa | - | - | - | - |
| 1777439129 | 17.22° C | 66% | 1012.6 hPa | - | - | - | - |
| 1777438229 | 17.22° C | 67% | 1012.5 hPa | - | - | - | - |
| 1777437329 | 16.11° C | 71% | 1012.6 hPa | - | - | - | - |
| 1777436428 | 16.67° C | 69% | 1012.4 hPa | - | - | - | - |
| 1777435528 | 17.22° C | 68% | 1012.4 hPa | - | - | - | - |
| 1777434628 | 16.67° C | 69% | 1012.5 hPa | - | - | - | - |
| 1777433728 | 17.22° C | 70% | 1012.5 hPa | - | - | - | - |
| 1777432828 | 17.22° C | 68% | 1012.7 hPa | - | - | - | - |
| 1777431928 | 17.22° C | 71% | 1012.7 hPa | - | - | - | - |
| 1777431028 | 17.78° C | 68% | 1012.6 hPa | - | - | - | - |
| 1777430128 | 17.78° C | 68% | 1012.7 hPa | - | - | - | - |
| 1777429228 | 17.22° C | 68% | 1012.6 hPa | - | - | - | - |
| 1777428327 | 17.78° C | 67% | 1012.7 hPa | - | - | - | - |
| 1777427427 | 17.78° C | 67% | 1012.7 hPa | - | - | - | - |
| 1777426527 | 17.78° C | 67% | 1012.7 hPa | - | - | - | - |
| 1777425627 | 17.22° C | 70% | 1012.9 hPa | - | - | - | - |
| 1777424727 | 17.78° C | 71% | 1013.1 hPa | - | - | - | - |
| 1777423827 | 17.78° C | 69% | 1013.1 hPa | - | - | - | - |
| 1777422927 | 17.78° C | 69% | 1013.2 hPa | - | - | - | - |
| 1777422027 | 18.33° C | 70% | 1013.2 hPa | - | - | - | - |
| 1777421127 | 18.33° C | 69% | 1013.2 hPa | - | - | - | - |
| 1777420226 | 18.33° C | 70% | 1012.9 hPa | - | - | - | - |
* Rain since midnight (hover to see other rain measurements)
** Current wind speed in m/s (hover to see current wind gust speed)